Time;durP1;ratioP1;P1;durP2;ratioP2;P2;SDS_P1;SDS_P2;PMS_P1;PMS_P2;Temp;Humidity;BMP_temperature;BMP_pressure;BME280_temperature;BME280_humidity;BME280_pressure;Samples;Min_cycle;Max_cycle;Signal;HPM_P1;HPM_P2
2021/10/15 00:01:11;;;;;;;10.00;7.30;;;;;;;9.04;100.00;99288.03;5026181;28;20116;-63
2021/10/15 00:03:36;;;;;;;6.47;4.43;;;;;;;9.01;100.00;99289.75;5026343;28;20033;-63
2021/10/15 00:06:02;;;;;;;5.43;4.05;;;;;;;8.99;100.00;99284.66;5028970;28;20059;-61
2021/10/15 00:08:27;;;;;;;5.05;4.22;;;;;;;8.99;100.00;99283.81;5025721;28;20033;-60
2021/10/15 00:10:53;;;;;;;35.10;20.13;;;;;;;9.00;100.00;99285.47;5025941;28;20095;-62
2021/10/15 00:13:18;;;;;;;11.77;7.10;;;;;;;8.98;100.00;99290.63;5028892;28;20038;-62
2021/10/15 00:15:44;;;;;;;13.23;8.13;;;;;;;8.98;100.00;99293.19;5029196;28;20046;-62
2021/10/15 00:18:09;;;;;;;12.20;7.35;;;;;;;8.97;100.00;99290.63;5028617;28;20029;-62
2021/10/15 00:20:35;;;;;;;11.35;7.65;;;;;;;8.97;100.00;99291.47;5033694;28;20034;-62
2021/10/15 00:23:00;;;;;;;10.70;7.50;;;;;;;8.99;100.00;99294.88;5029770;28;20665;-61
2021/10/15 00:25:26;;;;;;;7.60;5.37;;;;;;;8.98;100.00;99288.06;5022914;28;20075;-64
2021/10/15 00:27:52;;;;;;;7.25;5.18;;;;;;;8.95;100.00;99290.63;5023710;28;20075;-62
2021/10/15 00:30:17;;;;;;;7.97;5.07;;;;;;;8.92;100.00;99285.50;5021138;28;20374;-62
2021/10/15 00:32:43;;;;;;;7.38;5.50;;;;;;;8.92;100.00;99284.66;5032359;28;20040;-62
2021/10/15 00:35:08;;;;;;;4.78;4.20;;;;;;;8.95;100.00;99280.41;5027755;28;20030;-62
2021/10/15 00:37:33;;;;;;;5.07;3.80;;;;;;;8.91;100.00;99283.78;5037687;28;20036;-60
2021/10/15 00:39:59;;;;;;;8.38;5.53;;;;;;;8.85;100.00;99278.72;5029968;28;20030;-61
2021/10/15 00:42:25;;;;;;;6.05;4.45;;;;;;;8.86;100.00;99280.41;5029286;28;20034;-62
2021/10/15 00:44:50;;;;;;;6.45;4.22;;;;;;;8.87;100.00;99279.53;5031375;28;20086;-62
2021/10/15 00:47:16;;;;;;;3.90;3.50;;;;;;;8.88;100.00;99273.59;5033432;28;20040;-62
2021/10/15 00:49:41;;;;;;;5.97;4.00;;;;;;;8.92;100.00;99276.97;5032385;28;20029;-60
2021/10/15 00:52:09;;;;;;;5.30;4.13;;;;;;;8.91;100.00;99276.13;5032197;28;20036;-62
2021/10/15 00:54:35;;;;;;;6.97;4.07;;;;;;;8.93;100.00;99265.91;5026318;28;20421;-62
2021/10/15 00:57:01;;;;;;;6.97;4.53;;;;;;;8.92;100.00;99269.31;5027982;28;20034;-61
2021/10/15 00:59:28;;;;;;;3.97;3.53;;;;;;;8.92;100.00;99265.06;5030940;28;20065;-62
2021/10/15 01:01:53;;;;;;;4.90;4.23;;;;;;;8.86;100.00;99261.66;5026030;28;20092;-61
2021/10/15 01:04:19;;;;;;;6.07;4.67;;;;;;;8.81;100.00;99256.56;5026793;28;20037;-61
2021/10/15 01:06:44;;;;;;;6.70;5.20;;;;;;;8.78;100.00;99269.34;5020067;28;20041;-62
2021/10/15 01:09:10;;;;;;;5.30;4.40;;;;;;;8.77;100.00;99261.69;5027929;28;20035;-62
2021/10/15 01:11:36;;;;;;;5.43;4.70;;;;;;;8.75;100.00;99259.13;5021144;28;20354;-62
2021/10/15 01:14:03;;;;;;;6.40;3.80;;;;;;;8.77;100.00;99257.44;5022908;28;20041;-62
2021/10/15 01:16:31;;;;;;;6.13;4.57;;;;;;;8.76;100.00;99260.81;5033570;28;20422;-62
2021/10/15 01:18:59;;;;;;;7.47;4.77;;;;;;;8.74;100.00;99254.88;5030192;28;20037;-61
2021/10/15 01:21:24;;;;;;;6.30;4.50;;;;;;;8.69;100.00;99251.47;5048834;28;20041;-62
2021/10/15 01:23:50;;;;;;;9.20;5.13;;;;;;;8.68;100.00;99248.06;5026381;28;20030;-62
2021/10/15 01:26:16;;;;;;;9.27;5.45;;;;;;;8.65;100.00;99242.13;5032564;28;20043;-62
2021/10/15 01:28:42;;;;;;;7.37;5.00;;;;;;;8.60;100.00;99247.22;5029917;28;20423;-62
2021/10/15 01:31:08;;;;;;;5.50;4.93;;;;;;;8.57;100.00;99241.28;5030065;28;20041;-61
2021/10/15 01:33:34;;;;;;;4.67;4.27;;;;;;;8.52;100.00;99243.84;5030691;28;20084;-63
2021/10/15 01:36:00;;;;;;;6.20;4.17;;;;;;;8.44;100.00;99247.25;5032504;28;20391;-64
2021/10/15 01:38:27;;;;;;;7.17;4.40;;;;;;;8.44;100.00;99237.88;5041573;28;20026;-63
2021/10/15 01:40:53;;;;;;;4.27;3.67;;;;;;;8.42;100.00;99236.16;5027012;28;20431;-62
2021/10/15 01:43:27;;;;;;;6.20;4.50;;;;;;;8.41;100.00;99235.31;5023699;28;20135;-62
2021/10/15 01:45:53;;;;;;;5.78;4.65;;;;;;;8.32;100.00;99234.47;5027345;28;20030;-62
2021/10/15 01:48:19;;;;;;;5.37;3.83;;;;;;;8.22;100.00;99220.81;5019545;28;20044;-62
2021/10/15 01:50:45;;;;;;;11.00;5.27;;;;;;;8.18;100.00;99226.78;5020060;28;20156;-62
2021/10/15 01:53:10;;;;;;;5.47;3.73;;;;;;;8.04;100.00;99219.09;5025328;28;20033;-62
2021/10/15 01:55:36;;;;;;;8.40;5.43;;;;;;;7.93;100.00;99218.25;5026603;28;20095;-62
2021/10/15 01:58:01;;;;;;;5.73;3.77;;;;;;;7.86;100.00;99225.88;5035361;28;20377;-62
2021/10/15 02:00:27;;;;;;;5.97;4.73;;;;;;;7.80;100.00;99221.66;5022830;28;20580;-62
2021/10/15 02:02:52;;;;;;;6.33;4.73;;;;;;;7.72;100.00;99215.69;5028878;28;20025;-62
2021/10/15 02:05:18;;;;;;;5.93;5.00;;;;;;;7.67;100.00;99215.66;5031157;28;20037;-62
2021/10/15 02:07:44;;;;;;;9.37;4.13;;;;;;;7.66;100.00;99220.75;5034631;28;20025;-61
2021/10/15 02:10:11;;;;;;;5.67;3.83;;;;;;;7.66;100.00;99213.09;5029895;28;20388;-62
2021/10/15 02:12:38;;;;;;;6.40;4.63;;;;;;;7.63;100.00;99210.56;5027254;28;20063;-62
2021/10/15 02:15:06;;;;;;;9.07;4.33;;;;;;;7.66;100.00;99208.00;5033481;28;20403;-62
2021/10/15 02:17:33;;;;;;;6.53;4.23;;;;;;;7.58;100.00;99205.44;5026263;28;20037;-63
2021/10/15 02:19:58;;;;;;;7.53;3.83;;;;;;;7.67;100.00;99208.00;5024397;28;20120;-60
2021/10/15 02:22:24;;;;;;;4.40;3.90;;;;;;;7.69;100.00;99202.91;5020282;28;20187;-60
2021/10/15 02:24:49;;;;;;;4.87;3.23;;;;;;;7.75;100.00;99197.81;5024640;28;20032;-59
2021/10/15 02:27:15;;;;;;;6.67;3.50;;;;;;;7.75;100.00;99193.56;5022711;28;20037;-60
2021/10/15 02:29:40;;;;;;;4.50;3.17;;;;;;;7.87;100.00;99192.72;5022184;28;20036;-60
2021/10/15 02:32:06;;;;;;;4.70;4.00;;;;;;;7.82;100.00;99189.31;5025633;28;20052;-59
2021/10/15 02:34:32;;;;;;;4.37;3.63;;;;;;;7.78;100.00;99190.16;5026412;28;20018;-58
2021/10/15 02:36:58;;;;;;;7.00;3.57;;;;;;;7.71;100.00;99191.84;5023994;28;20040;-59
2021/10/15 02:39:23;;;;;;;5.47;3.43;;;;;;;7.67;100.00;99192.69;5022213;28;20365;-60
2021/10/15 02:41:48;;;;;;;4.43;3.33;;;;;;;7.61;100.00;99181.63;5025360;28;20037;-60
2021/10/15 02:44:14;;;;;;;4.87;3.40;;;;;;;7.59;100.00;99183.34;5027857;28;20054;-61
2021/10/15 02:46:40;;;;;;;4.97;3.60;;;;;;;7.55;100.00;99185.03;5028322;28;20059;-59
2021/10/15 02:49:06;;;;;;;5.37;3.77;;;;;;;7.58;100.00;99181.63;5023269;28;20051;-58
2021/10/15 02:51:32;;;;;;;7.73;4.03;;;;;;;7.58;100.00;99179.06;5025529;28;20032;-59
2021/10/15 02:53:58;;;;;;;7.70;3.77;;;;;;;7.74;100.00;99180.78;5026545;28;20044;-56
2021/10/15 02:56:23;;;;;;;10.87;4.27;;;;;;;7.69;100.00;99170.56;5022261;28;20140;-60
2021/10/15 02:58:49;;;;;;;6.93;3.73;;;;;;;7.68;100.00;99170.59;5024387;28;20068;-59
2021/10/15 03:01:15;;;;;;;5.03;3.17;;;;;;;7.60;100.00;99175.66;5025478;28;20030;-56
2021/10/15 03:03:40;;;;;;;3.47;2.70;;;;;;;7.65;100.00;99168.00;5024406;28;20069;-58
2021/10/15 03:06:07;;;;;;;4.23;2.70;;;;;;;7.65;100.00;99175.66;5018687;28;20565;-59
2021/10/15 03:08:32;;;;;;;3.60;2.63;;;;;;;7.58;100.00;99173.97;5023668;28;20030;-59
2021/10/15 03:10:58;;;;;;;3.43;3.13;;;;;;;7.57;100.00;99173.13;5021377;28;20029;-58
2021/10/15 03:13:23;;;;;;;4.23;3.00;;;;;;;7.55;100.00;99174.81;5024803;28;20479;-59
2021/10/15 03:15:49;;;;;;;2.60;2.40;;;;;;;7.55;100.00;99168.88;5021726;28;20032;-56
2021/10/15 03:18:14;;;;;;;3.57;2.33;;;;;;;7.49;100.00;99164.59;5021479;28;20500;-61
2021/10/15 03:20:40;;;;;;;3.87;2.77;;;;;;;7.49;100.00;99162.03;5026297;28;20029;-60
2021/10/15 03:23:05;;;;;;;3.30;2.57;;;;;;;7.45;100.00;99162.03;5023704;28;20104;-60
2021/10/15 03:25:31;;;;;;;3.77;3.13;;;;;;;7.42;100.00;99162.91;5020264;28;20136;-58
2021/10/15 03:27:57;;;;;;;5.13;3.20;;;;;;;7.36;100.00;99165.41;5020908;28;20045;-54
2021/10/15 03:30:22;;;;;;;5.80;3.17;;;;;;;7.31;100.00;99164.56;5022842;28;20041;-57
2021/10/15 03:32:48;;;;;;;5.77;3.53;;;;;;;7.26;100.00;99161.97;5022939;28;20081;-57
2021/10/15 03:35:13;;;;;;;5.97;2.80;;;;;;;7.18;100.00;99165.34;5020189;28;20064;-58
2021/10/15 03:37:39;;;;;;;4.27;2.90;;;;;;;7.18;100.00;99157.72;5010921;28;20041;-59
2021/10/15 03:40:05;;;;;;;5.30;3.30;;;;;;;7.17;100.00;99161.94;5025812;28;20041;-57
2021/10/15 03:42:31;;;;;;;3.67;2.70;;;;;;;7.11;100.00;99156.84;5020160;28;20177;-54
2021/10/15 03:44:56;;;;;;;5.60;3.40;;;;;;;7.14;100.00;99166.19;5016014;28;20120;-57
2021/10/15 03:47:22;;;;;;;4.90;2.90;;;;;;;7.09;100.00;99158.53;5018548;28;20385;-54
2021/10/15 03:49:47;;;;;;;5.43;3.00;;;;;;;7.07;100.00;99159.38;5022341;28;20057;-56
2021/10/15 03:52:13;;;;;;;6.33;4.10;;;;;;;7.11;100.00;99154.31;5026938;28;20030;-58
2021/10/15 03:54:39;;;;;;;7.63;3.90;;;;;;;7.12;100.00;99143.25;5027932;28;20040;-57
2021/10/15 03:57:04;;;;;;;6.20;3.33;;;;;;;7.11;100.00;99145.81;5031062;28;20506;-55
2021/10/15 03:59:29;;;;;;;5.10;3.87;;;;;;;7.06;100.00;99147.47;5035913;28;20017;-57
2021/10/15 04:01:55;;;;;;;5.17;3.60;;;;;;;7.03;100.00;99138.13;5035744;28;20041;-57
2021/10/15 04:04:20;;;;;;;4.77;3.23;;;;;;;7.04;100.00;99144.09;5035292;28;20379;-58
2021/10/15 04:06:45;;;;;;;7.20;3.53;;;;;;;7.03;100.00;99147.47;5035684;28;20029;-58
2021/10/15 04:09:11;;;;;;;7.97;3.13;;;;;;;7.01;100.00;99141.50;5036142;28;20030;-58
2021/10/15 04:11:36;;;;;;;5.97;3.67;;;;;;;6.98;100.00;99134.72;5033612;28;20036;-57
2021/10/15 04:14:02;;;;;;;4.93;3.93;;;;;;;6.98;100.00;99129.63;5031269;28;20042;-59
2021/10/15 04:16:27;;;;;;;4.50;3.10;;;;;;;6.97;100.00;99130.44;5038976;28;20079;-58
2021/10/15 04:18:53;;;;;;;4.53;4.13;;;;;;;6.97;100.00;99133.00;5031432;28;20391;-58
2021/10/15 04:21:18;;;;;;;5.70;3.73;;;;;;;6.96;100.00;99135.56;5022575;28;20026;-58
2021/10/15 04:23:44;;;;;;;4.93;2.90;;;;;;;6.94;100.00;99125.34;5019623;28;20533;-57
2021/10/15 04:26:09;;;;;;;5.40;2.83;;;;;;;6.95;100.00;99124.50;5024264;28;20117;-60
2021/10/15 04:28:35;;;;;;;5.20;3.20;;;;;;;6.92;100.00;99134.69;5023242;28;20785;-60
2021/10/15 04:31:00;;;;;;;5.63;3.27;;;;;;;6.91;100.00;99133.00;5026718;28;20059;-59
2021/10/15 04:33:26;;;;;;;5.40;3.27;;;;;;;6.94;100.00;99129.59;5030675;28;20041;-59
2021/10/15 04:35:52;;;;;;;8.47;3.73;;;;;;;6.95;100.00;99133.84;5033085;28;20072;-60
2021/10/15 04:38:17;;;;;;;7.33;5.27;;;;;;;6.97;100.00;99137.25;5034187;28;20029;-59
2021/10/15 04:40:43;;;;;;;6.70;4.30;;;;;;;6.96;100.00;99131.28;5031857;28;20030;-60
2021/10/15 04:43:08;;;;;;;8.57;3.67;;;;;;;6.95;100.00;99129.63;5031483;28;20495;-58
2021/10/15 04:45:34;;;;;;;6.70;3.87;;;;;;;6.95;100.00;99128.75;5032291;28;20029;-61
2021/10/15 04:47:59;;;;;;;4.67;3.23;;;;;;;6.98;100.00;99118.56;5033887;28;20037;-60
2021/10/15 04:50:25;;;;;;;4.07;2.80;;;;;;;6.97;100.00;99116.84;5030385;28;20025;-59
2021/10/15 04:52:50;;;;;;;3.63;2.77;;;;;;;6.97;100.00;99116.84;5023152;28;20116;-60
2021/10/15 04:55:16;;;;;;;3.47;3.17;;;;;;;6.97;100.00;99107.50;5028987;28;20563;-59
2021/10/15 04:57:41;;;;;;;4.73;3.03;;;;;;;6.97;100.00;99111.75;5027655;28;20033;-63
2021/10/15 05:00:08;;;;;;;5.53;3.57;;;;;;;7.04;100.00;99103.31;5024819;28;20698;-61
2021/10/15 05:02:40;;;;;;;4.87;3.43;;;;;;;7.04;100.00;99103.31;5016715;28;20529;-61
2021/10/15 05:05:07;;;;;;;7.63;3.27;;;;;;;6.99;100.00;99103.28;5027807;28;20036;-61
2021/10/15 05:07:38;;;;;;;5.50;3.50;;;;;;;7.03;100.00;99102.44;5030556;28;20147;-58
2021/10/15 05:10:04;;;;;;;4.80;2.73;;;;;;;7.02;100.00;99095.63;5025976;28;20092;-62
2021/10/15 05:12:30;;;;;;;7.20;4.53;;;;;;;6.95;100.00;99099.03;5030042;28;20048;-61
2021/10/15 05:14:56;;;;;;;8.53;5.13;;;;;;;6.93;100.00;99090.50;5031826;28;20041;-60
2021/10/15 05:17:21;;;;;;;4.73;3.57;;;;;;;6.95;100.00;99090.53;5028359;28;20483;-61
2021/10/15 05:19:47;;;;;;;3.53;3.17;;;;;;;6.89;100.00;99089.66;5030182;28;20041;-60
2021/10/15 05:22:13;;;;;;;5.60;3.77;;;;;;;6.89;100.00;99082.00;5029347;28;20026;-60
2021/10/15 05:24:39;;;;;;;7.70;3.40;;;;;;;6.86;100.00;99088.81;5033341;28;20048;-61
2021/10/15 05:27:04;;;;;;;4.37;2.97;;;;;;;6.81;100.00;99083.69;5027682;28;20036;-60
2021/10/15 05:29:30;;;;;;;6.00;4.23;;;;;;;6.81;100.00;99087.94;5030660;28;20483;-60
2021/10/15 05:31:55;;;;;;;6.43;3.40;;;;;;;6.75;100.00;99078.56;5031510;28;20026;-61
2021/10/15 05:34:21;;;;;;;5.10;4.13;;;;;;;6.76;100.00;99082.81;5029596;28;20394;-60
2021/10/15 05:36:47;;;;;;;4.03;3.70;;;;;;;6.71;100.00;99078.53;5021256;28;20426;-61
2021/10/15 05:39:12;;;;;;;7.50;4.10;;;;;;;6.73;100.00;99084.50;5024640;28;20029;-62
2021/10/15 05:41:38;;;;;;;5.13;3.27;;;;;;;6.74;100.00;99087.06;5020895;28;20014;-60
2021/10/15 05:44:03;;;;;;;7.60;3.43;;;;;;;6.75;100.00;99090.44;5018401;28;20058;-61
2021/10/15 05:46:29;;;;;;;3.90;3.50;;;;;;;6.79;100.00;99095.56;5022113;28;20065;-62
2021/10/15 05:48:54;;;;;;;7.30;3.67;;;;;;;6.81;100.00;99083.69;5022694;28;20091;-62
2021/10/15 05:51:22;;;;;;;6.17;4.00;;;;;;;6.87;100.00;99088.78;5028265;28;20113;-61
2021/10/15 05:53:49;;;;;;;9.50;4.13;;;;;;;6.94;100.00;99091.38;5029463;28;20026;-62
2021/10/15 05:58:53;;;;;;;5.07;3.73;;;;;;;7.11;100.00;99088.03;5028158;28;20037;-61
2021/10/15 06:01:25;;;;;;;4.33;3.53;;;;;;;7.27;100.00;99087.19;5029481;28;20036;-62
2021/10/15 06:14:46;;;;;;;12.80;6.50;;;;;;;7.63;100.00;99080.41;5023610;28;20060;-62
2021/10/15 06:17:12;;;;;;;13.63;7.40;;;;;;;7.77;100.00;99078.69;5020777;28;20036;-63
2021/10/15 06:22:13;;;;;;;;;;;;;;;8.23;100.00;99077.75;5022343;28;20291;-62
2021/10/15 06:24:39;;;;;;;12.00;5.63;;;;;;;8.41;100.00;99064.13;5020898;28;19914;-62
2021/10/15 06:27:04;;;;;;;11.37;6.17;;;;;;;8.49;100.00;99059.84;5024057;28;20476;-60
2021/10/15 06:29:30;;;;;;;11.70;5.13;;;;;;;8.68;100.00;99055.50;5028321;28;20040;-63
2021/10/15 06:31:55;;;;;;;6.73;4.70;;;;;;;8.88;100.00;99052.84;5034995;28;20075;-62
2021/10/15 06:34:21;;;;;;;4.70;3.83;;;;;;;9.05;100.00;99048.47;5026097;28;20033;-62
2021/10/15 06:36:46;;;;;;;6.70;3.97;;;;;;;9.30;100.00;99046.59;5030450;28;20033;-61
2021/10/15 06:39:12;;;;;;;5.33;4.37;;;;;;;9.47;100.00;99055.84;5031209;28;20037;-62
2021/10/15 06:41:37;;;;;;;8.67;3.53;;;;;;;9.45;100.00;99052.47;5030559;28;20029;-61
2021/10/15 06:44:03;;;;;;;4.07;3.37;;;;;;;9.51;100.00;99049.84;5030811;28;20060;-62
2021/10/15 06:46:29;;;;;;;8.97;4.50;;;;;;;9.70;100.00;99047.16;5026269;28;20029;-62
2021/10/15 06:48:54;;;;;;;3.80;3.50;;;;;;;9.97;100.00;99040.03;5031702;28;20497;-63
2021/10/15 06:51:20;;;;;;;4.10;3.60;;;;;;;10.06;100.00;99046.78;5025991;28;20116;-63
2021/10/15 06:53:45;;;;;;;4.57;3.35;;;;;;;10.34;100.00;99049.94;5027525;28;20147;-63
2021/10/15 06:56:11;;;;;;;3.63;2.40;;;;;;;10.49;100.00;99049.75;5021364;28;20029;-63
2021/10/15 06:58:37;;;;;;;5.43;2.90;;;;;;;10.66;100.00;99052.97;5030016;28;20033;-63
2021/10/15 07:01:03;;;;;;;2.33;2.20;;;;;;;10.95;100.00;99044.88;5017131;28;20025;-63
2021/10/15 07:03:29;;;;;;;4.03;3.05;;;;;;;11.16;100.00;99054.84;5021415;28;20034;-63
2021/10/15 07:05:55;;;;;;;4.78;3.55;;;;;;;11.26;100.00;99053.84;5020194;28;20487;-63
2021/10/15 07:08:20;;;;;;;3.30;3.00;;;;;;;11.38;100.00;99051.09;5026023;28;20479;-61
2021/10/15 07:10:45;;;;;;;4.93;3.50;;;;;;;11.50;100.00;99050.03;5025706;28;20660;-61
2021/10/15 07:13:14;;;;;;;3.67;2.65;;;;;;;11.61;100.00;99048.16;5026212;28;20041;-61
2021/10/15 07:15:42;;;;;;;3.17;2.33;;;;;;;11.83;100.00;99041.81;5026873;28;20034;-62
2021/10/15 07:18:08;;;;;;;4.45;3.67;;;;;;;11.91;100.00;99041.69;5025157;28;20030;-63
2021/10/15 07:20:33;;;;;;;4.22;2.50;;;;;;;11.94;100.00;99045.91;5030921;28;20309;-63
2021/10/15 07:22:58;;;;;;;4.13;2.85;;;;;;;12.14;100.00;99048.94;5027320;28;20112;-61
2021/10/15 07:25:24;;;;;;;7.22;2.80;;;;;;;12.23;98.77;99041.06;5030598;28;20411;-63
2021/10/15 07:27:50;;;;;;;4.00;2.67;;;;;;;12.40;98.44;99043.31;5038681;28;20032;-61
2021/10/15 07:30:16;;;;;;;2.83;2.25;;;;;;;12.53;95.85;99037.06;5030072;28;20029;-62
2021/10/15 07:32:41;;;;;;;4.38;1.90;;;;;;;12.62;96.02;99044.59;5028394;28;20051;-64
2021/10/15 07:35:08;;;;;;;2.75;1.98;;;;;;;12.83;93.81;99036.41;5025537;28;20481;-62
2021/10/15 07:37:33;;;;;;;2.80;2.38;;;;;;;12.72;92.41;99033.25;5024981;28;20749;-63
2021/10/15 07:39:58;;;;;;;4.60;2.90;;;;;;;12.80;92.02;99029.63;5022440;28;20064;-62
2021/10/15 07:42:24;;;;;;;6.30;3.72;;;;;;;12.71;92.93;99023.81;5024021;28;20045;-62
2021/10/15 07:44:50;;;;;;;3.15;2.22;;;;;;;12.91;93.21;99028.53;5026018;28;20045;-61
2021/10/15 07:47:15;;;;;;;3.88;2.92;;;;;;;12.71;91.99;99024.66;5032137;28;20033;-61
2021/10/15 07:49:41;;;;;;;3.78;3.00;;;;;;;12.88;91.67;99024.31;5022210;28;20028;-61
2021/10/15 07:52:07;;;;;;;4.85;2.60;;;;;;;12.76;92.43;99016.84;5029922;28;20312;-61
2021/10/15 07:54:33;;;;;;;3.65;2.30;;;;;;;12.79;91.29;99025.34;5033631;28;20032;-62
2021/10/15 07:56:59;;;;;;;2.70;2.50;;;;;;;12.93;91.63;99021.63;5036008;28;20117;-61
2021/10/15 07:59:25;;;;;;;3.13;2.22;;;;;;;12.82;94.14;99025.28;5034726;28;20095;-61
2021/10/15 08:01:51;;;;;;;4.28;1.90;;;;;;;13.02;92.38;99021.44;5037314;28;20029;-62
2021/10/15 08:04:16;;;;;;;1.95;1.85;;;;;;;13.18;91.81;99021.06;5031702;28;20091;-62
2021/10/15 08:06:42;;;;;;;3.42;1.80;;;;;;;13.38;89.37;99017.16;5025707;28;20029;-61
2021/10/15 08:09:07;;;;;;;2.17;1.98;;;;;;;13.36;88.02;99022.38;5025400;28;20033;-62
2021/10/15 08:11:32;;;;;;;2.28;2.08;;;;;;;13.12;87.98;99025.50;5025721;28;20017;-61
2021/10/15 08:13:58;;;;;;;2.15;1.92;;;;;;;13.39;87.92;99022.28;5026267;28;20460;-60
2021/10/15 08:16:23;;;;;;;2.40;1.90;;;;;;;13.57;85.13;99016.69;5026075;28;20040;-62
2021/10/15 08:18:50;;;;;;;5.75;2.33;;;;;;;13.63;84.88;99011.38;5022951;28;20645;-62
2021/10/15 08:21:16;;;;;;;5.60;2.17;;;;;;;13.68;83.32;99014.69;5025782;28;20038;-62
2021/10/15 08:23:44;;;;;;;2.08;1.85;;;;;;;13.84;81.81;99020.28;5029518;28;20037;-62
2021/10/15 08:26:09;;;;;;;1.67;1.55;;;;;;;13.77;80.61;99015.34;5024909;28;20041;-62
2021/10/15 08:28:35;;;;;;;2.05;1.83;;;;;;;13.83;78.23;99002.31;5026776;28;20037;-62
2021/10/15 08:31:03;;;;;;;2.92;1.85;;;;;;;13.90;78.12;99003.84;5029083;28;20415;-62
2021/10/15 08:33:28;;;;;;;2.65;1.95;;;;;;;13.72;77.55;99006.00;5025343;28;20447;-63
2021/10/15 08:35:54;;;;;;;2.08;1.98;;;;;;;13.86;74.61;99002.22;5026775;28;20040;-61
2021/10/15 08:38:19;;;;;;;2.17;1.88;;;;;;;13.85;73.96;99009.09;5025770;28;20025;-62
2021/10/15 08:40:46;;;;;;;3.30;1.90;;;;;;;13.96;72.67;99009.66;5027695;28;20052;-62
2021/10/15 08:43:12;;;;;;;3.35;2.22;;;;;;;14.11;73.66;99004.09;5027195;28;20159;-62
2021/10/15 08:45:37;;;;;;;2.28;2.05;;;;;;;14.12;75.00;99008.38;5028338;28;20034;-60
2021/10/15 08:48:03;;;;;;;2.55;2.00;;;;;;;14.44;75.20;99011.81;5033495;28;20718;-62
2021/10/15 08:50:30;;;;;;;2.63;2.42;;;;;;;14.41;73.55;99012.75;5027970;28;20426;-62
2021/10/15 08:52:55;;;;;;;2.95;2.30;;;;;;;14.58;71.42;99004.53;5031881;28;20090;-61
2021/10/15 08:55:21;;;;;;;2.30;2.20;;;;;;;14.67;71.65;99009.44;5027360;28;20041;-62
2021/10/15 08:57:49;;;;;;;2.40;2.20;;;;;;;14.75;71.62;99006.63;5022702;28;20082;-60
2021/10/15 09:00:34;;;;;;;2.25;2.15;;;;;;;14.53;72.09;99004.66;5023984;28;20060;-61
2021/10/15 09:03:17;;;;;;;2.50;2.35;;;;;;;14.73;71.50;99005.81;5023844;28;20034;-62
2021/10/15 09:06:12;;;;;;;4.75;2.08;;;;;;;14.66;70.88;99009.47;5022710;28;20496;-62
2021/10/15 09:08:55;;;;;;;6.10;5.50;;;;;;;14.83;74.02;98996.91;5027440;28;20041;-62
2021/10/15 09:11:28;;;;;;;3.90;2.90;;;;;;;15.04;74.72;99002.25;5028800;28;20051;-61
2021/10/15 09:14:10;;;;;;;3.25;2.95;;;;;;;15.25;72.63;98998.16;5029370;28;20081;-63
2021/10/15 09:16:57;;;;;;;5.60;3.85;;;;;;;15.23;72.09;98999.09;5031288;28;20041;-62
2021/10/15 09:19:23;;;;;;;7.43;3.20;;;;;;;15.04;73.96;98994.50;5033224;28;20479;-62
2021/10/15 09:22:11;;;;;;;2.67;2.47;;;;;;;15.31;74.30;98990.22;5037987;28;20044;-63
2021/10/15 09:24:47;;;;;;;3.40;3.10;;;;;;;15.58;73.45;98993.66;5028091;28;20033;-62
2021/10/15 09:27:16;;;;;;;25.75;5.82;;;;;;;15.68;72.67;98983.84;5028676;28;20434;-62
2021/10/15 09:29:43;;;;;;;3.20;2.95;;;;;;;15.86;70.15;98983.25;5022441;28;20025;-63
2021/10/15 09:32:08;;;;;;;27.88;8.82;;;;;;;15.88;71.36;98982.28;5029453;28;20052;-62
2021/10/15 09:34:34;;;;;;;10.80;4.70;;;;;;;15.90;72.64;98974.47;5019459;28;20562;-62
2021/10/15 09:37:00;;;;;;;2.65;2.45;;;;;;;15.79;73.17;98974.84;5022265;28;20071;-63
2021/10/15 09:39:26;;;;;;;2.55;2.33;;;;;;;16.28;69.70;98968.78;5028798;28;20488;-62
2021/10/15 09:41:51;;;;;;;3.95;2.55;;;;;;;16.26;69.90;98970.56;5019589;28;20469;-60
2021/10/15 09:44:32;;;;;;;2.97;2.78;;;;;;;16.58;69.09;98977.19;5025549;28;20050;-60
2021/10/15 09:47:21;;;;;;;2.35;2.15;;;;;;;16.73;66.88;98966.22;5036682;28;20372;-60
2021/10/15 09:49:49;;;;;;;2.67;2.47;;;;;;;16.81;64.41;98958.16;5028042;28;20108;-59
2021/10/15 09:52:25;;;;;;;3.25;2.95;;;;;;;16.92;64.81;98953.44;5031275;28;20364;-60
2021/10/15 09:54:59;;;;;;;18.90;6.07;;;;;;;16.79;66.27;98950.47;5029759;28;20069;-62
2021/10/15 09:57:30;;;;;;;2.72;2.53;;;;;;;16.62;67.50;98952.03;5031830;28;20502;-61
2021/10/15 09:59:57;;;;;;;3.33;2.90;;;;;;;16.73;64.32;98950.69;5031947;28;20369;-61
2021/10/15 10:02:23;;;;;;;4.72;2.78;;;;;;;16.70;64.83;98950.81;5026331;28;20037;-63
2021/10/15 10:04:51;;;;;;;4.43;2.60;;;;;;;16.48;66.71;98942.16;5037170;28;20028;-61
2021/10/15 10:07:17;;;;;;;2.95;2.35;;;;;;;16.64;68.16;98939.84;5032856;28;20036;-62
2021/10/15 10:09:43;;;;;;;2.65;2.45;;;;;;;16.68;64.07;98944.84;5026892;28;20034;-63
2021/10/15 10:12:11;;;;;;;5.72;5.32;;;;;;;16.82;62.97;98950.34;5025923;28;20136;-63
2021/10/15 10:14:36;;;;;;;2.33;2.05;;;;;;;16.76;63.26;98947.16;5018728;28;20017;-63
2021/10/15 10:17:03;;;;;;;2.20;2.08;;;;;;;16.87;62.65;98935.47;5021624;28;20041;-63
2021/10/15 10:19:33;;;;;;;2.30;2.20;;;;;;;16.88;63.52;98937.16;5023825;28;20033;-63
2021/10/15 10:21:59;;;;;;;2.10;2.00;;;;;;;16.83;63.18;98927.88;5021242;28;20053;-63
2021/10/15 10:24:30;;;;;;;2.50;2.22;;;;;;;16.90;63.05;98926.72;5033131;28;20071;-62
2021/10/15 10:26:56;;;;;;;2.25;2.05;;;;;;;16.78;63.58;98928.06;5027527;28;20376;-63
2021/10/15 10:29:24;;;;;;;2.08;1.83;;;;;;;16.81;62.54;98925.34;5028789;28;20032;-62
2021/10/15 10:31:52;;;;;;;2.08;1.98;;;;;;;16.70;61.83;98918.91;5028203;28;20032;-63
2021/10/15 10:34:26;;;;;;;2.45;2.25;;;;;;;16.44;61.89;98912.97;5027889;28;20361;-62
2021/10/15 10:37:21;;;;;;;2.83;1.60;;;;;;;16.57;64.03;98909.91;5033871;28;20045;-62
2021/10/15 10:39:47;;;;;;;1.38;1.38;;;;;;;16.66;63.18;98905.25;5029340;28;20056;-61
2021/10/15 10:42:15;;;;;;;1.98;1.90;;;;;;;16.41;60.40;98897.56;5030197;28;20036;-64
2021/10/15 10:44:50;;;;;;;1.73;1.63;;;;;;;16.44;61.19;98905.19;5031129;28;20029;-63
2021/10/15 10:47:21;;;;;;;1.70;1.60;;;;;;;16.39;62.55;98899.34;5033274;28;20033;-63
2021/10/15 10:50:02;;;;;;;1.75;1.65;;;;;;;16.42;61.09;98901.00;5018755;28;20029;-62
2021/10/15 10:52:28;;;;;;;1.63;1.52;;;;;;;16.30;63.14;98899.69;5025414;28;20041;-63
2021/10/15 10:54:53;;;;;;;1.40;1.30;;;;;;;16.45;60.52;98896.53;5017081;28;20026;-63
2021/10/15 10:57:22;;;;;;;2.33;1.60;;;;;;;16.40;62.58;98890.69;5026311;28;20040;-63
2021/10/15 10:59:51;;;;;;;1.90;1.67;;;;;;;16.43;61.44;98895.72;5019015;28;20123;-63
2021/10/15 11:02:19;;;;;;;1.30;1.30;;;;;;;16.31;60.29;98883.28;5027512;28;20041;-63
2021/10/15 11:04:45;;;;;;;1.30;1.30;;;;;;;16.27;60.15;98881.69;5030320;28;20037;-63
2021/10/15 11:07:16;;;;;;;1.33;1.25;;;;;;;16.18;60.90;98894.13;5022288;28;20540;-63
2021/10/15 11:09:48;;;;;;;1.75;1.40;;;;;;;16.34;61.90;98882.28;5024205;28;20033;-63
2021/10/15 11:12:33;;;;;;;1.92;1.83;;;;;;;16.33;60.98;98884.06;5037145;28;20034;-62
2021/10/15 11:15:06;;;;;;;1.20;1.20;;;;;;;16.42;62.48;98862.16;5030350;28;20407;-62
2021/10/15 11:17:49;;;;;;;1.30;1.30;;;;;;;16.60;61.72;98868.38;5030307;28;20044;-63
2021/10/15 11:20:19;;;;;;;1.60;1.55;;;;;;;16.62;60.78;98861.41;5030149;28;20106;-63
2021/10/15 11:22:52;;;;;;;1.50;1.40;;;;;;;16.75;61.21;98860.03;5029381;28;20147;-62
2021/10/15 11:25:19;;;;;;;2.30;1.77;;;;;;;16.68;60.50;98853.38;5029785;28;20030;-63
2021/10/15 11:27:58;;;;;;;1.70;1.10;;;;;;;16.94;58.15;98849.75;5017957;28;20392;-63
2021/10/15 11:30:26;;;;;;;2.83;1.65;;;;;;;16.87;59.50;98828.44;5030084;28;20040;-62
2021/10/15 11:32:53;;;;;;;2.45;1.52;;;;;;;16.65;60.88;98825.88;5021574;28;20111;-61
2021/10/15 11:35:19;;;;;;;1.50;1.40;;;;;;;16.53;61.03;98818.56;5019210;28;20066;-62
2021/10/15 11:37:51;;;;;;;1.65;1.55;;;;;;;16.73;60.15;98813.47;5018645;28;20045;-62
2021/10/15 11:40:19;;;;;;;1.85;1.75;;;;;;;16.74;62.12;98814.31;5025274;28;20392;-62
2021/10/15 11:42:46;;;;;;;1.58;1.58;;;;;;;16.68;62.33;98814.53;5020337;28;20054;-60
2021/10/15 11:45:31;;;;;;;1.52;1.48;;;;;;;16.74;60.80;98806.53;5027506;28;20109;-62
2021/10/15 11:48:00;;;;;;;1.80;1.70;;;;;;;16.92;60.25;98805.78;5024343;28;20034;-62